createdAt,value
2022-12-07T00:02:33.662Z,1.76
2022-12-07T00:07:37.670Z,1.69
2022-12-07T00:12:41.271Z,1.73
2022-12-07T00:17:46.281Z,1.51
2022-12-07T00:22:49.745Z,1.62
2022-12-07T00:27:54.628Z,1.67
2022-12-07T00:32:59.597Z,1.71
2022-12-07T00:38:03.268Z,1.76
2022-12-07T00:43:06.930Z,1.78
2022-12-07T00:48:11.946Z,1.66
2022-12-07T00:53:15.826Z,1.84
2022-12-07T00:58:19.376Z,1.73
2022-12-07T01:03:24.346Z,1.58
2022-12-07T01:08:30.412Z,1.45
2022-12-07T01:13:34.427Z,1.29
2022-12-07T01:18:39.493Z,1.45
2022-12-07T01:23:43.683Z,1.05
2022-12-07T01:28:47.272Z,1.38
2022-12-07T01:33:54.554Z,1.45
2022-12-07T01:39:01.038Z,1.54
2022-12-07T01:44:18.499Z,1.64
2022-12-07T01:49:30.505Z,1.71
2022-12-07T01:54:35.791Z,1.59
2022-12-07T01:59:40.698Z,1.73
2022-12-07T02:04:46.211Z,1.54
2022-12-07T02:09:49.706Z,1.57
2022-12-07T02:14:53.864Z,1.83
2022-12-07T02:20:18.463Z,1.96
2022-12-07T02:25:32.712Z,2.04
2022-12-07T02:30:45.286Z,1.52
2022-12-07T02:35:55.486Z,1.58
2022-12-07T02:41:04.469Z,1.75
2022-12-07T02:46:14.675Z,1.83
2022-12-07T02:51:19.867Z,1.85
2022-12-07T02:56:30.198Z,1.90
2022-12-07T03:01:43.268Z,1.82
2022-12-07T03:06:54.097Z,1.80
2022-12-07T03:12:06.138Z,1.96
2022-12-07T03:17:15.962Z,2.12
2022-12-07T03:22:21.453Z,2.16
2022-12-07T03:27:30.836Z,2.09
2022-12-07T03:32:39.577Z,2.17
2022-12-07T03:37:48.134Z,1.96
2022-12-07T03:42:53.686Z,2.07
2022-12-07T03:48:08.590Z,2.08
2022-12-07T03:53:17.503Z,2.06
2022-12-07T03:58:24.243Z,1.88
2022-12-07T04:03:29.221Z,1.86
2022-12-07T04:08:32.854Z,2.05
2022-12-07T04:13:56.372Z,2.08
2022-12-07T04:19:01.347Z,2.11
2022-12-07T04:24:05.678Z,2.10
2022-12-07T04:29:09.392Z,2.24
2022-12-07T04:34:15.373Z,2.36
2022-12-07T04:39:22.733Z,2.15
2022-12-07T04:44:27.562Z,2.23
2022-12-07T04:49:33.087Z,2.44
2022-12-07T04:54:36.768Z,2.28
2022-12-07T04:59:45.348Z,2.24
2022-12-07T05:04:51.135Z,2.29
2022-12-07T05:09:54.606Z,2.38
2022-12-07T05:14:58.639Z,2.31
2022-12-07T05:20:04.960Z,2.10
2022-12-07T05:25:09.422Z,2.20
2022-12-07T05:30:14.158Z,2.28
2022-12-07T05:35:19.789Z,2.08
2022-12-07T05:40:23.829Z,2.16
2022-12-07T05:45:27.478Z,2.39
2022-12-07T05:50:32.456Z,2.68
2022-12-07T05:55:39.234Z,2.46
2022-12-07T06:00:45.617Z,2.59
2022-12-07T06:05:55.377Z,2.46
2022-12-07T06:11:12.845Z,2.71
2022-12-07T06:16:16.511Z,2.69
2022-12-07T06:21:21.517Z,2.68
2022-12-07T06:26:25.206Z,2.49
2022-12-07T06:31:28.866Z,2.43
2022-12-07T06:36:34.380Z,2.39
2022-12-07T06:41:38.922Z,2.54
2022-12-07T06:46:42.534Z,2.74
2022-12-07T06:51:47.591Z,2.74
2022-12-07T06:56:51.164Z,2.76
2022-12-07T07:01:55.047Z,2.63
2022-12-07T07:07:00.450Z,2.73
2022-12-07T07:12:04.064Z,2.67
2022-12-07T07:17:07.697Z,2.71
2022-12-07T07:22:12.792Z,2.66
2022-12-07T07:27:16.316Z,2.56
2022-12-07T07:32:20.432Z,2.14
2022-12-07T07:37:25.406Z,2.25
2022-12-07T07:42:28.948Z,1.99
2022-12-07T07:47:32.614Z,2.31
2022-12-07T07:52:37.882Z,2.43
2022-12-07T07:57:42.462Z,2.60
2022-12-07T08:02:47.077Z,2.62
2022-12-07T08:07:52.153Z,2.76
2022-12-07T08:13:14.793Z,2.48
2022-12-07T08:18:18.420Z,2.64
2022-12-07T08:23:31.550Z,2.50
2022-12-07T08:28:38.752Z,2.51
2022-12-07T08:33:42.585Z,2.71
2022-12-07T08:39:22.667Z,2.89
2022-12-07T08:44:11.674Z,3.24
2022-12-07T08:49:18.869Z,3.40
2022-12-07T08:54:24.301Z,3.43
2022-12-07T08:59:29.343Z,3.25
2022-12-07T09:04:33.112Z,3.24
2022-12-07T09:09:38.322Z,3.36
2022-12-07T09:14:41.919Z,3.25
2022-12-07T09:19:45.559Z,3.18
2022-12-07T09:24:50.575Z,3.18
2022-12-07T09:29:54.435Z,3.20
2022-12-07T09:34:58.492Z,3.45
2022-12-07T09:40:04.352Z,3.73
2022-12-07T09:45:14.199Z,3.87
2022-12-07T09:50:21.761Z,4.22
2022-12-07T09:55:30.208Z,4.25
2022-12-07T10:00:34.019Z,4.64
2022-12-07T10:05:42.234Z,4.79
2022-12-07T10:10:48.560Z,4.95
2022-12-07T10:15:55.105Z,4.96
2022-12-07T10:21:24.873Z,4.81
2022-12-07T10:26:33.561Z,4.72
2022-12-07T10:31:41.783Z,5.72
2022-12-07T10:36:45.308Z,5.61
2022-12-07T10:42:01.097Z,5.61
2022-12-07T10:47:19.320Z,5.26
2022-12-07T10:52:45.106Z,5.36
2022-12-07T10:58:04.039Z,5.24
2022-12-07T11:03:42.626Z,5.17
2022-12-07T11:09:00.488Z,5.01
2022-12-07T11:14:18.232Z,4.92
2022-12-07T11:19:52.312Z,5.76
2022-12-07T11:25:04.865Z,5.81
2022-12-07T11:30:19.142Z,5.61
2022-12-07T11:35:33.341Z,5.52
2022-12-07T11:40:39.068Z,5.65
2022-12-07T11:45:46.647Z,5.16
2022-12-07T11:50:54.385Z,5.06
2022-12-07T11:56:02.510Z,4.71
2022-12-07T12:01:17.355Z,4.98
2022-12-07T12:06:21.591Z,4.84
2022-12-07T12:11:48.121Z,4.79
2022-12-07T12:17:16.699Z,4.45
2022-12-07T12:22:23.809Z,4.27
2022-12-07T12:27:31.786Z,4.42
2022-12-07T12:32:42.491Z,4.50
2022-12-07T12:37:47.673Z,4.42
2022-12-07T12:42:53.125Z,4.65
2022-12-07T12:48:02.320Z,4.50
2022-12-07T12:53:22.666Z,4.51
2022-12-07T12:58:35.810Z,4.45
2022-12-07T13:03:40.789Z,4.53
2022-12-07T13:08:44.340Z,4.87
2022-12-07T13:13:48.071Z,4.95
2022-12-07T13:18:53.159Z,5.48
2022-12-07T13:24:00.088Z,5.13
2022-12-07T13:29:12.849Z,5.11
2022-12-07T13:34:34.726Z,5.07
2022-12-07T13:39:47.756Z,4.82
2022-12-07T13:44:51.926Z,4.50
2022-12-07T13:49:58.899Z,4.29
2022-12-07T13:55:09.087Z,4.26
2022-12-07T14:00:18.436Z,4.13
2022-12-07T14:05:29.189Z,4.06
2022-12-07T14:10:35.224Z,4.04
2022-12-07T14:15:38.857Z,4.22
2022-12-07T14:20:43.989Z,4.20
2022-12-07T14:25:51.119Z,3.92
2022-12-07T14:30:55.444Z,3.67
2022-12-07T14:36:00.494Z,3.33
2022-12-07T14:41:19.613Z,3.40
2022-12-07T14:46:23.301Z,2.99
2022-12-07T14:56:52.562Z,3.01
2022-12-07T15:01:56.158Z,2.94
2022-12-07T15:07:03.010Z,2.55
2022-12-07T15:12:07.216Z,2.44
2022-12-07T15:17:19.257Z,2.47
2022-12-07T15:22:37.966Z,2.35
2022-12-07T15:27:42.088Z,2.44
2022-12-07T15:32:45.740Z,2.51
2022-12-07T15:37:50.828Z,2.44
2022-12-07T15:42:54.392Z,2.36
2022-12-07T15:53:24.324Z,2.40
2022-12-07T15:58:28.443Z,2.44
2022-12-07T16:03:32.358Z,2.20
2022-12-07T16:08:38.323Z,2.38
2022-12-07T16:13:42.383Z,2.42
2022-12-07T16:18:48.138Z,2.11
2022-12-07T16:23:54.190Z,2.28
2022-12-07T16:28:57.910Z,2.19
2022-12-07T16:34:01.586Z,2.09
2022-12-07T16:39:07.661Z,2.28
2022-12-07T16:44:14.667Z,2.23
2022-12-07T16:49:19.773Z,2.29
2022-12-07T16:54:24.925Z,2.42
2022-12-07T16:59:28.533Z,2.27
2022-12-07T17:04:33.187Z,2.39
2022-12-07T17:09:38.567Z,2.57
2022-12-07T17:14:59.594Z,2.61
2022-12-07T17:20:03.188Z,2.64
2022-12-07T17:25:08.579Z,2.70
2022-12-07T17:30:13.701Z,2.36
2022-12-07T17:35:17.228Z,2.72
2022-12-07T17:40:22.039Z,2.62
2022-12-07T17:45:25.473Z,2.61
2022-12-07T17:50:46.349Z,2.62
2022-12-07T18:01:23.669Z,2.71
2022-12-07T18:06:27.731Z,2.67
2022-12-07T18:11:33.086Z,2.35
2022-12-07T18:16:37.425Z,2.18
2022-12-07T18:21:41.235Z,2.08
2022-12-07T18:26:47.825Z,2.02
2022-12-07T18:31:52.551Z,2.01
2022-12-07T18:36:56.806Z,1.82
2022-12-07T18:42:01.785Z,1.98
2022-12-07T18:47:05.364Z,2.07
2022-12-07T18:52:08.969Z,2.04
2022-12-07T18:57:14.779Z,2.09
2022-12-07T19:02:20.107Z,2.17
2022-12-07T19:07:23.869Z,1.93
2022-12-07T19:12:29.926Z,2.00
2022-12-07T19:17:33.952Z,1.95
2022-12-07T19:22:38.773Z,2.04
2022-12-07T19:27:43.688Z,2.04
2022-12-07T19:32:47.880Z,2.08
2022-12-07T19:37:51.631Z,2.17
2022-12-07T19:42:56.888Z,1.89
2022-12-07T19:48:02.149Z,1.80
2022-12-07T19:53:05.975Z,1.96
2022-12-07T19:58:11.682Z,1.96
2022-12-07T20:03:15.653Z,1.70
2022-12-07T20:08:19.483Z,1.46
2022-12-07T20:13:32.087Z,1.70
2022-12-07T20:18:38.353Z,1.75
2022-12-07T20:23:42.878Z,1.37
2022-12-07T20:28:48.669Z,1.64
2022-12-07T20:33:52.699Z,1.40
2022-12-07T20:39:00.477Z,1.70
2022-12-07T20:44:06.645Z,1.57
2022-12-07T20:49:11.819Z,1.50
2022-12-07T20:54:16.056Z,1.60
2022-12-07T20:59:21.054Z,1.57
2022-12-07T21:04:24.690Z,1.32
2022-12-07T21:09:29.294Z,1.51
2022-12-07T21:14:35.298Z,1.57
2022-12-07T21:19:39.735Z,1.59
2022-12-07T21:24:43.398Z,1.69
2022-12-07T21:29:53.946Z,1.49
2022-12-07T21:34:58.127Z,1.40
2022-12-07T21:40:02.047Z,1.66
2022-12-07T21:45:07.916Z,1.56
2022-12-07T21:50:12.429Z,1.65
2022-12-07T21:55:16.014Z,1.64
2022-12-07T22:00:24.745Z,1.46
2022-12-07T22:05:28.308Z,1.70
2022-12-07T22:10:32.746Z,1.55
2022-12-07T22:15:41.941Z,1.74
2022-12-07T22:20:45.419Z,1.61
2022-12-07T22:25:48.872Z,1.43
2022-12-07T22:30:53.638Z,1.55
2022-12-07T22:35:57.471Z,1.46
2022-12-07T22:41:01.143Z,1.61
2022-12-07T22:46:06.401Z,1.62
2022-12-07T22:51:21.063Z,1.43
2022-12-07T22:56:24.401Z,1.58
2022-12-07T23:01:29.336Z,1.52
2022-12-07T23:06:34.252Z,1.64
2022-12-07T23:11:57.433Z,1.56
2022-12-07T23:17:03.213Z,1.54
2022-12-07T23:22:06.751Z,1.30
2022-12-07T23:27:10.229Z,1.51
2022-12-07T23:32:15.269Z,1.48
2022-12-07T23:37:18.934Z,1.42
2022-12-07T23:42:22.486Z,1.34
2022-12-07T23:47:27.443Z,1.44
2022-12-07T23:52:31.440Z,1.52
2022-12-07T23:57:35.605Z,1.48
